createdAt,value
2023-04-05T00:00:26.931Z,1027.34
2023-04-05T00:01:26.945Z,1027.35
2023-04-05T00:02:26.966Z,1027.3
2023-04-05T00:03:27.060Z,1027.3
2023-04-05T00:04:27.223Z,1027.32
2023-04-05T00:05:26.941Z,1027.28
2023-04-05T00:06:26.955Z,1027.3
2023-04-05T00:07:26.951Z,1027.26
2023-04-05T00:08:26.980Z,1027.32
2023-04-05T00:09:26.952Z,1027.3
2023-04-05T00:10:26.956Z,1027.25
2023-04-05T00:11:26.952Z,1027.25
2023-04-05T00:12:26.945Z,1027.25
2023-04-05T00:13:26.950Z,1027.23
2023-04-05T00:14:26.944Z,1027.19
2023-04-05T00:15:26.959Z,1027.17
2023-04-05T00:16:26.971Z,1027.2
2023-04-05T00:17:26.946Z,1027.2
2023-04-05T00:18:26.942Z,1027.18
2023-04-05T00:19:26.956Z,1027.16
2023-04-05T00:20:26.952Z,1027.17
2023-04-05T00:21:26.962Z,1027.16
2023-04-05T00:22:26.959Z,1027.15
2023-04-05T00:23:26.948Z,1027.15
2023-04-05T00:24:26.931Z,1027.18
2023-04-05T00:25:26.967Z,1027.14
2023-04-05T00:26:26.947Z,1027.16
2023-04-05T00:27:26.947Z,1027.09
2023-04-05T00:28:26.949Z,1027.12
2023-04-05T00:29:26.943Z,1027.11
2023-04-05T00:30:26.971Z,1027.09
2023-04-05T00:31:26.989Z,1027.09
2023-04-05T00:32:26.950Z,1027.08
2023-04-05T00:33:26.952Z,1027.06
2023-04-05T00:34:26.941Z,1027.02
2023-04-05T00:35:26.973Z,1027.02
2023-04-05T00:36:26.992Z,1027.01
2023-04-05T00:37:26.943Z,1027.02
2023-04-05T00:38:26.947Z,1027.05
2023-04-05T00:39:26.945Z,1027.01
2023-04-05T00:40:26.966Z,1026.99
2023-04-05T00:41:26.933Z,1027.01
2023-04-05T00:42:26.957Z,1027
2023-04-05T00:43:26.946Z,1027.01
2023-04-05T00:44:26.949Z,1027.01
2023-04-05T00:45:26.954Z,1027.02
2023-04-05T00:46:27.017Z,1026.99
2023-04-05T00:47:26.955Z,1027.01
2023-04-05T00:48:26.953Z,1026.94
2023-04-05T00:49:26.943Z,1026.92
2023-04-05T00:50:26.957Z,1026.95
2023-04-05T00:51:26.961Z,1026.96
2023-04-05T00:52:26.942Z,1026.95
2023-04-05T00:53:26.947Z,1026.95
2023-04-05T00:54:26.945Z,1026.93
2023-04-05T00:55:26.962Z,1026.91
2023-04-05T00:56:26.950Z,1026.92
2023-04-05T00:57:26.949Z,1026.91
2023-04-05T00:58:26.958Z,1026.89
2023-04-05T00:59:26.974Z,1026.88
2023-04-05T01:00:26.971Z,1026.79
2023-04-05T01:01:26.969Z,1026.83
2023-04-05T01:02:26.948Z,1026.79
2023-04-05T01:03:26.949Z,1026.85
2023-04-05T01:04:26.967Z,1026.82
2023-04-05T01:05:27.116Z,1026.84
2023-04-05T01:06:26.960Z,1026.77
2023-04-05T01:07:26.940Z,1026.76
2023-04-05T01:08:26.942Z,1026.82
2023-04-05T01:09:26.944Z,1026.84
2023-04-05T01:10:26.943Z,1026.78
2023-04-05T01:11:27.012Z,1026.78
2023-04-05T01:12:26.936Z,1026.79
2023-04-05T01:13:26.996Z,1026.83
2023-04-05T01:14:26.943Z,1026.76
2023-04-05T01:15:26.974Z,1026.75
2023-04-05T01:16:26.948Z,1026.76
2023-04-05T01:17:26.962Z,1026.74
2023-04-05T01:18:26.940Z,1026.76
2023-04-05T01:19:26.934Z,1026.76
2023-04-05T01:20:26.939Z,1026.68
2023-04-05T01:21:26.961Z,1026.7
2023-04-05T01:22:26.958Z,1026.73
2023-04-05T01:23:26.937Z,1026.7
2023-04-05T01:24:26.942Z,1026.71
2023-04-05T01:25:26.934Z,1026.69
2023-04-05T01:26:26.944Z,1026.67
2023-04-05T01:27:26.923Z,1026.66
2023-04-05T01:28:26.939Z,1026.64
2023-04-05T01:29:26.941Z,1026.68
2023-04-05T01:30:26.927Z,1026.68
2023-04-05T01:31:26.990Z,1026.65
2023-04-05T01:32:26.994Z,1026.66
2023-04-05T01:33:26.944Z,1026.62
2023-04-05T01:34:26.940Z,1026.63
2023-04-05T01:35:26.945Z,1026.61
2023-04-05T01:36:26.950Z,1026.65
2023-04-05T01:37:26.941Z,1026.65
2023-04-05T01:38:26.959Z,1026.65
2023-04-05T01:39:26.940Z,1026.63
2023-04-05T01:40:26.931Z,1026.6
2023-04-05T01:41:26.956Z,1026.57
2023-04-05T01:42:26.946Z,1026.55
2023-04-05T01:43:26.946Z,1026.61
2023-04-05T01:44:26.943Z,1026.62
2023-04-05T01:45:26.942Z,1026.55
2023-04-05T01:46:26.991Z,1026.57
2023-04-05T01:47:26.973Z,1026.54
2023-04-05T01:48:26.947Z,1026.53
2023-04-05T01:49:26.961Z,1026.52
2023-04-05T01:50:26.934Z,1026.54
2023-04-05T01:51:26.951Z,1026.53
2023-04-05T01:52:26.947Z,1026.49
2023-04-05T01:53:26.935Z,1026.52
2023-04-05T01:54:26.940Z,1026.5
2023-04-05T01:55:26.931Z,1026.54
2023-04-05T01:56:26.950Z,1026.5
2023-04-05T01:57:26.944Z,1026.5
2023-04-05T01:58:26.940Z,1026.52
2023-04-05T01:59:26.985Z,1026.52
2023-04-05T02:00:26.931Z,1026.51
2023-04-05T02:01:27.142Z,1026.49
2023-04-05T02:02:26.999Z,1026.47
2023-04-05T02:03:27.050Z,1026.46
2023-04-05T02:04:26.939Z,1026.44
2023-04-05T02:05:26.941Z,1026.42
2023-04-05T02:06:27.112Z,1026.45
2023-04-05T02:07:26.947Z,1026.44
2023-04-05T02:08:26.951Z,1026.44
2023-04-05T02:09:26.946Z,1026.44
2023-04-05T02:10:26.948Z,1026.4
2023-04-05T02:11:26.983Z,1026.4
2023-04-05T02:12:26.955Z,1026.45
2023-04-05T02:13:26.940Z,1026.47
2023-04-05T02:14:26.951Z,1026.43
2023-04-05T02:15:26.945Z,1026.44
2023-04-05T02:16:27.010Z,1026.46
2023-04-05T02:17:26.957Z,1026.39
2023-04-05T02:18:26.939Z,1026.45
2023-04-05T02:19:26.936Z,1026.43
2023-04-05T02:20:26.955Z,1026.42
2023-04-05T02:21:26.953Z,1026.45
2023-04-05T02:22:26.956Z,1026.44
2023-04-05T02:23:26.948Z,1026.46
2023-04-05T02:24:26.954Z,1026.45
2023-04-05T02:25:26.936Z,1026.43
2023-04-05T02:26:26.947Z,1026.47
2023-04-05T02:27:26.947Z,1026.41
2023-04-05T02:28:26.943Z,1026.42
2023-04-05T02:29:26.955Z,1026.39
2023-04-05T02:30:26.932Z,1026.38
2023-04-05T02:31:26.986Z,1026.37
2023-04-05T02:32:26.976Z,1026.38
2023-04-05T02:33:26.954Z,1026.37
2023-04-05T02:34:26.947Z,1026.38
2023-04-05T02:35:26.981Z,1026.37
2023-04-05T02:36:26.943Z,1026.37
2023-04-05T02:37:26.967Z,1026.36
2023-04-05T02:38:26.937Z,1026.4
2023-04-05T02:39:26.934Z,1026.33
2023-04-05T02:40:26.944Z,1026.37
2023-04-05T02:41:26.934Z,1026.33
2023-04-05T02:42:26.953Z,1026.35
2023-04-05T02:43:26.944Z,1026.4
2023-04-05T02:44:26.950Z,1026.33
2023-04-05T02:45:26.948Z,1026.35
2023-04-05T02:46:27.007Z,1026.33
2023-04-05T02:47:27.011Z,1026.33
2023-04-05T02:48:26.935Z,1026.31
2023-04-05T02:49:26.946Z,1026.33
2023-04-05T02:50:26.943Z,1026.29
2023-04-05T02:51:26.961Z,1026.28
2023-04-05T02:52:26.955Z,1026.3
2023-04-05T02:53:26.951Z,1026.28
2023-04-05T02:54:26.955Z,1026.26
2023-04-05T02:55:26.944Z,1026.28
2023-04-05T02:56:26.935Z,1026.3
2023-04-05T02:57:26.959Z,1026.27
2023-04-05T02:58:26.934Z,1026.3
2023-04-05T02:59:26.970Z,1026.28
2023-04-05T03:00:26.943Z,1026.29
2023-04-05T03:01:27.014Z,1026.26
2023-04-05T03:02:26.993Z,1026.32
2023-04-05T03:03:26.947Z,1026.28
2023-04-05T03:04:27.001Z,1026.31
2023-04-05T03:05:26.971Z,1026.3
2023-04-05T03:06:26.946Z,1026.3
2023-04-05T03:07:26.955Z,1026.29
2023-04-05T03:08:26.946Z,1026.28
2023-04-05T03:09:26.941Z,1026.28
2023-04-05T03:10:26.941Z,1026.26
2023-04-05T03:11:26.937Z,1026.26
2023-04-05T03:12:26.962Z,1026.29
2023-04-05T03:13:26.950Z,1026.29
2023-04-05T03:14:26.943Z,1026.29
2023-04-05T03:15:26.940Z,1026.27
2023-04-05T03:16:26.970Z,1026.27
2023-04-05T03:17:26.983Z,1026.26
2023-04-05T03:18:26.942Z,1026.26
2023-04-05T03:19:26.941Z,1026.25
2023-04-05T03:20:26.950Z,1026.24
2023-04-05T03:21:26.992Z,1026.26
2023-04-05T03:22:26.957Z,1026.23
2023-04-05T03:23:26.946Z,1026.23
2023-04-05T03:24:26.939Z,1026.23
2023-04-05T03:25:26.962Z,1026.24
2023-04-05T03:26:26.930Z,1026.23
2023-04-05T03:27:26.947Z,1026.22
2023-04-05T03:28:26.947Z,1026.22
2023-04-05T03:29:26.952Z,1026.22
2023-04-05T03:30:26.933Z,1026.2
2023-04-05T03:31:26.983Z,1026.16
2023-04-05T03:32:26.997Z,1026.18
2023-04-05T03:33:26.949Z,1026.19
2023-04-05T03:34:26.956Z,1026.15
2023-04-05T03:35:26.958Z,1026.15
2023-04-05T03:36:26.947Z,1026.12
2023-04-05T03:37:26.950Z,1026.12
2023-04-05T03:38:26.936Z,1026.15
2023-04-05T03:39:26.938Z,1026.14
2023-04-05T03:40:26.939Z,1026.15
2023-04-05T03:41:26.947Z,1026.15
2023-04-05T03:42:26.951Z,1026.13
2023-04-05T03:43:26.952Z,1026.09
2023-04-05T03:44:26.948Z,1026.1
2023-04-05T03:45:26.949Z,1026.06
2023-04-05T03:46:27.012Z,1026.14
2023-04-05T03:47:26.989Z,1026.12
2023-04-05T03:48:26.944Z,1026.06
2023-04-05T03:49:26.948Z,1026.06
2023-04-05T03:50:26.969Z,1026.08
2023-04-05T03:51:26.937Z,1026.09
2023-04-05T03:52:26.957Z,1026.07
2023-04-05T03:53:26.945Z,1026.08
2023-04-05T03:54:26.944Z,1026.07
2023-04-05T03:55:26.933Z,1026.07
2023-04-05T03:56:26.945Z,1026.04
2023-04-05T03:57:26.958Z,1026.07
2023-04-05T03:58:26.934Z,1026.09
2023-04-05T03:59:27.012Z,1026.07
2023-04-05T04:00:26.945Z,1026.05
2023-04-05T04:01:26.940Z,1026.04
2023-04-05T04:02:27.103Z,1026.06
2023-04-05T04:03:26.939Z,1026.05
2023-04-05T04:04:26.948Z,1026.07
2023-04-05T04:05:26.992Z,1026.08
2023-04-05T04:06:27.008Z,1026.07
2023-04-05T04:07:26.956Z,1026.08
2023-04-05T04:08:26.940Z,1026.06
2023-04-05T04:09:26.941Z,1026.05
2023-04-05T04:10:26.930Z,1026.05
2023-04-05T04:11:26.945Z,1026.05
2023-04-05T04:12:26.964Z,1026.07
2023-04-05T04:13:26.947Z,1026.04
2023-04-05T04:14:26.939Z,1026.05
2023-04-05T04:15:26.945Z,1026
2023-04-05T04:16:28.729Z,1026
2023-04-05T04:17:27.002Z,1026.03
2023-04-05T04:18:26.932Z,1026.06
2023-04-05T04:19:26.958Z,1026.03
2023-04-05T04:20:26.921Z,1026.01
2023-04-05T04:21:26.925Z,1026.04
2023-04-05T04:22:26.958Z,1025.99
2023-04-05T04:23:26.943Z,1025.94
2023-04-05T04:24:26.937Z,1025.94
2023-04-05T04:25:26.930Z,1025.98
2023-04-05T04:26:26.948Z,1025.92
2023-04-05T04:27:26.947Z,1025.96
2023-04-05T04:28:26.935Z,1025.94
2023-04-05T04:29:26.940Z,1025.94
2023-04-05T04:30:26.960Z,1025.93
2023-04-05T04:31:26.981Z,1025.95
2023-04-05T04:32:27.099Z,1025.99
2023-04-05T04:33:26.943Z,1025.97
2023-04-05T04:34:26.943Z,1025.97
2023-04-05T04:35:26.984Z,1026.02
2023-04-05T04:36:26.942Z,1026.02
2023-04-05T04:37:26.962Z,1025.98
2023-04-05T04:38:26.949Z,1025.99
2023-04-05T04:39:26.942Z,1026
2023-04-05T04:40:26.928Z,1026.02
2023-04-05T04:41:26.944Z,1026.02
2023-04-05T04:42:26.958Z,1026.02
2023-04-05T04:43:26.934Z,1026.03
2023-04-05T04:44:26.936Z,1026
2023-04-05T04:45:26.946Z,1026.04
2023-04-05T04:46:26.962Z,1026.02
2023-04-05T04:47:26.994Z,1026.01
2023-04-05T04:48:26.933Z,1026.03
2023-04-05T04:49:26.942Z,1026.01
2023-04-05T04:50:26.924Z,1026.07
2023-04-05T04:51:26.934Z,1026.01
2023-04-05T04:52:26.962Z,1026.03
2023-04-05T04:53:26.944Z,1026
2023-04-05T04:54:26.936Z,1026
2023-04-05T04:55:26.941Z,1026.03
2023-04-05T04:56:26.945Z,1026.05
2023-04-05T04:57:26.953Z,1026.03
2023-04-05T04:58:26.942Z,1026.02
2023-04-05T04:59:26.975Z,1026.03
2023-04-05T05:00:26.938Z,1026
2023-04-05T05:01:26.981Z,1026.05
2023-04-05T05:02:28.643Z,1026.05
2023-04-05T05:03:26.943Z,1026.05
2023-04-05T05:04:26.992Z,1026.03
2023-04-05T05:05:26.948Z,1026.03
2023-04-05T05:06:26.947Z,1026.07
2023-04-05T05:07:26.961Z,1026.05
2023-04-05T05:08:26.971Z,1026.1
2023-04-05T05:09:26.946Z,1026.08
2023-04-05T05:10:26.940Z,1026.1
2023-04-05T05:11:26.951Z,1026.1
2023-04-05T05:12:26.958Z,1026.07
2023-04-05T05:13:26.956Z,1026.07
2023-04-05T05:14:26.944Z,1026.12
2023-04-05T05:15:26.944Z,1026.1
2023-04-05T05:16:26.992Z,1026.1
2023-04-05T05:17:27.003Z,1026.06
2023-04-05T05:18:26.944Z,1026.1
2023-04-05T05:19:26.934Z,1026.07
2023-04-05T05:20:26.950Z,1026.09
2023-04-05T05:21:26.948Z,1026.08
2023-04-05T05:22:26.962Z,1026.09
2023-04-05T05:23:26.946Z,1026.1
2023-04-05T05:24:26.943Z,1026.07
2023-04-05T05:25:27.517Z,1026.1
2023-04-05T05:26:26.944Z,1026.1
2023-04-05T05:27:26.954Z,1026.1
2023-04-05T05:28:26.943Z,1026.08
2023-04-05T05:29:26.942Z,1026.08
2023-04-05T05:30:26.939Z,1026.1
2023-04-05T05:31:27.005Z,1026.12
2023-04-05T05:32:26.956Z,1026.12
2023-04-05T05:33:26.949Z,1026.14
2023-04-05T05:34:26.942Z,1026.17
2023-04-05T05:35:26.952Z,1026.16
2023-04-05T05:36:26.941Z,1026.17
2023-04-05T05:37:26.960Z,1026.18
2023-04-05T05:38:26.944Z,1026.13
2023-04-05T05:39:26.941Z,1026.16
2023-04-05T05:40:26.966Z,1026.17
2023-04-05T05:41:26.933Z,1026.15
2023-04-05T05:42:26.964Z,1026.16
2023-04-05T05:43:26.944Z,1026.15
2023-04-05T05:44:26.943Z,1026.09
2023-04-05T05:45:26.941Z,1026.08
2023-04-05T05:46:26.988Z,1026.13
2023-04-05T05:47:26.962Z,1026.09
2023-04-05T05:48:26.939Z,1026.1
2023-04-05T05:49:26.950Z,1026.1
2023-04-05T05:50:26.930Z,1026.08
2023-04-05T05:51:26.945Z,1026.08
2023-04-05T05:52:26.958Z,1026.08
2023-04-05T05:53:26.940Z,1026.07
2023-04-05T05:54:26.943Z,1026.07
2023-04-05T05:55:26.931Z,1026.09
2023-04-05T05:56:26.936Z,1026.07
2023-04-05T05:57:26.956Z,1026.05
2023-04-05T05:58:26.943Z,1026.07
2023-04-05T05:59:26.972Z,1026.02
2023-04-05T06:00:26.954Z,1026.04
2023-04-05T06:01:26.944Z,1026.03
2023-04-05T06:02:26.981Z,1026.03
2023-04-05T06:03:27.047Z,1026.04
2023-04-05T06:04:27.033Z,1026.04
2023-04-05T06:05:26.934Z,1026.04
2023-04-05T06:06:26.953Z,1026.02
2023-04-05T06:07:27.168Z,1026.07
2023-04-05T06:08:26.945Z,1026.02
2023-04-05T06:09:26.947Z,1026.03
2023-04-05T06:10:26.941Z,1026.05
2023-04-05T06:11:26.956Z,1026.05
2023-04-05T06:12:28.722Z,1026.04
2023-04-05T06:13:26.936Z,1026.04
2023-04-05T06:14:26.960Z,1026
2023-04-05T06:15:26.947Z,1026.01
2023-04-05T06:16:26.991Z,1026.02
2023-04-05T06:17:26.988Z,1025.97
2023-04-05T06:18:26.948Z,1025.98
2023-04-05T06:19:26.953Z,1026.01
2023-04-05T06:20:26.944Z,1026.02
2023-04-05T06:21:26.941Z,1025.96
2023-04-05T06:22:26.962Z,1025.96
2023-04-05T06:23:26.952Z,1025.95
2023-04-05T06:24:26.943Z,1026
2023-04-05T06:25:26.958Z,1026.01
2023-04-05T06:26:26.961Z,1026.04
2023-04-05T06:27:26.956Z,1025.98
2023-04-05T06:28:26.954Z,1026.01
2023-04-05T06:29:26.954Z,1026.02
2023-04-05T06:30:26.939Z,1026.04
2023-04-05T06:31:26.962Z,1025.99
2023-04-05T06:32:26.965Z,1025.99
2023-04-05T06:33:26.969Z,1025.92
2023-04-05T06:34:26.952Z,1025.97
2023-04-05T06:35:26.942Z,1025.93
2023-04-05T06:36:27.789Z,1025.93
2023-04-05T06:37:26.959Z,1025.93
2023-04-05T06:38:26.949Z,1025.96
2023-04-05T06:39:26.927Z,1025.93
2023-04-05T06:40:26.938Z,1025.94
2023-04-05T06:41:26.945Z,1025.92
2023-04-05T06:42:28.125Z,1025.93
2023-04-05T06:43:26.967Z,1025.92
2023-04-05T06:44:26.944Z,1025.9
2023-04-05T06:45:26.943Z,1025.86
2023-04-05T06:46:27.011Z,1025.87
2023-04-05T06:47:26.954Z,1025.84
2023-04-05T06:48:26.959Z,1025.82
2023-04-05T06:49:26.938Z,1025.84
2023-04-05T06:50:26.936Z,1025.84
2023-04-05T06:51:26.938Z,1025.81
2023-04-05T06:52:26.946Z,1025.81
2023-04-05T06:53:26.955Z,1025.78
2023-04-05T06:54:27.001Z,1025.74
2023-04-05T06:55:26.943Z,1025.68
2023-04-05T06:56:26.952Z,1025.71
2023-04-05T06:57:26.947Z,1025.68
2023-04-05T06:58:26.951Z,1025.67
2023-04-05T06:59:26.954Z,1025.66
2023-04-05T07:00:26.949Z,1025.61
2023-04-05T07:01:26.944Z,1025.62
2023-04-05T07:02:27.081Z,1025.62
2023-04-05T07:03:26.954Z,1025.61
2023-04-05T07:04:27.005Z,1025.6
2023-04-05T07:05:26.939Z,1025.63
2023-04-05T07:06:26.938Z,1025.64
2023-04-05T07:07:26.951Z,1025.6
2023-04-05T07:08:26.951Z,1025.61
2023-04-05T07:09:26.944Z,1025.58
2023-04-05T07:10:26.938Z,1025.54
2023-04-05T07:11:26.942Z,1025.54
2023-04-05T07:12:26.939Z,1025.52
2023-04-05T07:13:26.960Z,1025.51
2023-04-05T07:14:26.948Z,1025.53
2023-04-05T07:15:26.930Z,1025.54
2023-04-05T07:16:27.000Z,1025.47
2023-04-05T07:17:27.000Z,1025.49
2023-04-05T07:18:26.956Z,1025.52
2023-04-05T07:19:26.941Z,1025.5
2023-04-05T07:20:26.963Z,1025.46
2023-04-05T07:21:26.948Z,1025.46
2023-04-05T07:22:26.962Z,1025.4
2023-04-05T07:23:26.942Z,1025.43
2023-04-05T07:24:26.940Z,1025.42
2023-04-05T07:25:26.937Z,1025.39
2023-04-05T07:26:26.930Z,1025.4
2023-04-05T07:27:26.941Z,1025.39
2023-04-05T07:28:26.953Z,1025.35
2023-04-05T07:29:26.937Z,1025.34
2023-04-05T07:30:26.928Z,1025.37
2023-04-05T07:31:26.971Z,1025.39
2023-04-05T07:32:27.156Z,1025.35
2023-04-05T07:33:26.949Z,1025.38
2023-04-05T07:34:26.936Z,1025.35
2023-04-05T07:35:26.943Z,1025.35
2023-04-05T07:36:26.940Z,1025.34
2023-04-05T07:37:26.957Z,1025.32
2023-04-05T07:38:27.017Z,1025.28
2023-04-05T07:39:26.945Z,1025.29
2023-04-05T07:40:26.935Z,1025.31
2023-04-05T07:41:26.940Z,1025.32
2023-04-05T07:42:26.928Z,1025.32
2023-04-05T07:43:26.980Z,1025.3
2023-04-05T07:44:26.939Z,1025.24
2023-04-05T07:45:26.943Z,1025.23
2023-04-05T07:46:26.945Z,1025.25
2023-04-05T07:47:26.993Z,1025.2
2023-04-05T07:48:26.961Z,1025.15
2023-04-05T07:49:26.941Z,1025.2
2023-04-05T07:50:26.932Z,1025.2
2023-04-05T07:51:26.941Z,1025.2
2023-04-05T07:52:26.959Z,1025.16
2023-04-05T07:53:26.944Z,1025.21
2023-04-05T07:54:26.931Z,1025.17
2023-04-05T07:55:26.926Z,1025.19
2023-04-05T07:56:26.958Z,1025.22
2023-04-05T07:57:26.937Z,1025.22
2023-04-05T07:58:26.949Z,1025.26
2023-04-05T07:59:27.010Z,1025.2
2023-04-05T08:00:26.932Z,1025.17
2023-04-05T08:01:26.939Z,1025.16
2023-04-05T08:02:26.969Z,1025.21
2023-04-05T08:03:27.040Z,1025.25
2023-04-05T08:04:26.941Z,1025.25
2023-04-05T08:05:26.965Z,1025.21
2023-04-05T08:06:26.932Z,1025.16
2023-04-05T08:07:26.947Z,1025.2
2023-04-05T08:08:26.948Z,1025.14
2023-04-05T08:09:26.941Z,1025.17
2023-04-05T08:10:26.941Z,1025.11
2023-04-05T08:11:26.959Z,1025.11
2023-04-05T08:12:26.954Z,1025.1
2023-04-05T08:13:26.950Z,1025.11
2023-04-05T08:14:26.951Z,1025.1
2023-04-05T08:15:26.940Z,1025.1
2023-04-05T08:16:26.965Z,1025.1
2023-04-05T08:17:26.986Z,1025.11
2023-04-05T08:18:26.960Z,1025.11
2023-04-05T08:19:26.943Z,1025.1
2023-04-05T08:20:26.929Z,1025.11
2023-04-05T08:21:26.940Z,1025.11
2023-04-05T08:22:26.956Z,1025.09
2023-04-05T08:23:26.948Z,1025.09
2023-04-05T08:24:26.956Z,1025.06
2023-04-05T08:25:26.939Z,1025.02
2023-04-05T08:26:26.938Z,1025.02
2023-04-05T08:27:26.942Z,1025.04
2023-04-05T08:28:26.956Z,1025.06
2023-04-05T08:29:26.947Z,1025.08
2023-04-05T08:30:26.934Z,1025.08
2023-04-05T08:31:26.958Z,1025.07
2023-04-05T08:32:27.006Z,1025.08
2023-04-05T08:33:26.946Z,1025.09
2023-04-05T08:34:26.941Z,1025.1
2023-04-05T08:35:27.005Z,1025.09
2023-04-05T08:36:26.935Z,1025.08
2023-04-05T08:37:26.950Z,1025.09
2023-04-05T08:38:26.945Z,1025.13
2023-04-05T08:39:27.008Z,1025.14
2023-04-05T08:40:26.922Z,1025.08
2023-04-05T08:41:26.943Z,1025.12
2023-04-05T08:42:26.938Z,1025.13
2023-04-05T08:43:26.955Z,1025.16
2023-04-05T08:44:26.954Z,1025.17
2023-04-05T08:45:26.940Z,1025.14
2023-04-05T08:46:26.961Z,1025.17
2023-04-05T08:47:26.969Z,1025.14
2023-04-05T08:48:26.963Z,1025.11
2023-04-05T08:49:26.934Z,1025.06
2023-04-05T08:50:26.930Z,1025.05
2023-04-05T08:51:26.961Z,1025.01
2023-04-05T08:52:26.950Z,1025.05
2023-04-05T08:53:26.955Z,1025.04
2023-04-05T08:54:26.947Z,1025.04
2023-04-05T08:55:26.936Z,1025.09
2023-04-05T08:56:26.948Z,1025.08
2023-04-05T08:57:26.950Z,1025.12
2023-04-05T08:58:26.957Z,1025.04
2023-04-05T08:59:27.005Z,1025.07
2023-04-05T09:00:26.947Z,1024.98
2023-04-05T09:01:26.974Z,1025.05
2023-04-05T09:02:27.000Z,1025.01
2023-04-05T09:03:27.091Z,1025.03
2023-04-05T09:04:26.948Z,1025.09
2023-04-05T09:05:26.952Z,1025.04
2023-04-05T09:06:26.945Z,1025.04
2023-04-05T09:07:26.962Z,1025.07
2023-04-05T09:08:26.958Z,1025.06
2023-04-05T09:09:26.951Z,1025.04
2023-04-05T09:10:26.938Z,1025.04
2023-04-05T09:11:26.964Z,1025.04
2023-04-05T09:12:26.951Z,1025.02
2023-04-05T09:13:26.953Z,1025
2023-04-05T09:14:26.944Z,1025.05
2023-04-05T09:15:26.959Z,1025.04
2023-04-05T09:16:26.965Z,1025.01
2023-04-05T09:17:26.949Z,1025.05
2023-04-05T09:18:27.609Z,1025.08
2023-04-05T09:19:26.944Z,1025
2023-04-05T09:20:26.931Z,1024.98
2023-04-05T09:21:26.947Z,1024.93
2023-04-05T09:22:26.954Z,1024.92
2023-04-05T09:23:26.950Z,1024.89
2023-04-05T09:24:26.947Z,1024.89
2023-04-05T09:25:26.948Z,1024.91
2023-04-05T09:26:26.938Z,1024.94
2023-04-05T09:27:26.952Z,1024.97
2023-04-05T09:28:26.959Z,1024.89
2023-04-05T09:29:26.945Z,1024.94
2023-04-05T09:30:26.930Z,1024.94
2023-04-05T09:31:26.954Z,1024.91
2023-04-05T09:32:27.003Z,1024.89
2023-04-05T09:33:27.064Z,1024.92
2023-04-05T09:34:26.961Z,1025.01
2023-04-05T09:35:26.947Z,1024.99
2023-04-05T09:36:26.955Z,1024.91
2023-04-05T09:37:26.965Z,1024.98
2023-04-05T09:38:26.962Z,1024.96
2023-04-05T09:39:26.947Z,1024.97
2023-04-05T09:40:26.939Z,1024.98
2023-04-05T09:41:26.963Z,1024.93
2023-04-05T09:42:26.968Z,1024.94
2023-04-05T09:43:26.961Z,1024.93
2023-04-05T09:44:26.953Z,1024.9
2023-04-05T09:45:26.939Z,1024.98
2023-04-05T09:46:26.958Z,1024.89
2023-04-05T09:47:26.944Z,1024.94
2023-04-05T09:48:26.959Z,1024.96
2023-04-05T09:49:26.965Z,1024.93
2023-04-05T09:50:26.955Z,1024.97
2023-04-05T09:51:26.952Z,1024.93
2023-04-05T09:52:26.970Z,1024.9
2023-04-05T09:53:26.963Z,1024.89
2023-04-05T09:54:26.945Z,1024.92
2023-04-05T09:55:26.943Z,1024.91
2023-04-05T09:56:26.945Z,1024.96
2023-04-05T09:57:26.952Z,1024.93
2023-04-05T09:58:26.956Z,1024.93
2023-04-05T09:59:26.964Z,1024.96
2023-04-05T10:00:26.927Z,1024.92
2023-04-05T10:01:26.991Z,1024.91
2023-04-05T10:02:27.100Z,1024.92
2023-04-05T10:03:27.001Z,1024.9
2023-04-05T10:04:26.945Z,1024.97
2023-04-05T10:05:26.968Z,1024.98
2023-04-05T10:06:26.938Z,1024.99
2023-04-05T10:07:26.957Z,1024.99
2023-04-05T10:08:26.962Z,1025.04
2023-04-05T10:09:26.960Z,1024.99
2023-04-05T10:10:26.924Z,1024.97
2023-04-05T10:11:26.942Z,1024.97
2023-04-05T10:12:27.043Z,1025.02
2023-04-05T10:13:26.954Z,1025
2023-04-05T10:14:26.941Z,1025.02
2023-04-05T10:15:26.953Z,1024.97
2023-04-05T10:16:26.974Z,1024.97
2023-04-05T10:17:26.982Z,1024.89
2023-04-05T10:18:27.122Z,1024.91
2023-04-05T10:19:26.951Z,1024.92
2023-04-05T10:20:26.948Z,1024.9
2023-04-05T10:21:26.953Z,1024.89
2023-04-05T10:22:26.949Z,1024.96
2023-04-05T10:23:26.947Z,1024.94
2023-04-05T10:24:26.942Z,1024.93
2023-04-05T10:25:26.936Z,1024.94
2023-04-05T10:26:26.930Z,1024.94
2023-04-05T10:27:26.940Z,1024.96
2023-04-05T10:28:26.944Z,1024.97
2023-04-05T10:29:26.951Z,1024.92
2023-04-05T10:30:26.979Z,1024.97
2023-04-05T10:31:36.905Z,1024.94
2023-04-05T10:32:26.980Z,1024.94
2023-04-05T10:33:26.994Z,1024.97
2023-04-05T10:34:26.933Z,1024.93
2023-04-05T10:35:26.987Z,1024.96
2023-04-05T10:36:26.985Z,1024.98
2023-04-05T10:37:26.990Z,1024.99
2023-04-05T10:38:27.020Z,1024.99
2023-04-05T10:39:26.951Z,1024.98
2023-04-05T10:40:26.989Z,1024.99
2023-04-05T10:41:26.947Z,1024.99
2023-04-05T10:42:26.928Z,1024.97
2023-04-05T10:43:27.038Z,1024.94
2023-04-05T10:44:27.203Z,1024.98
2023-04-05T10:45:26.962Z,1024.96
2023-04-05T10:46:26.985Z,1024.96
2023-04-05T10:47:26.985Z,1024.93
2023-04-05T10:48:26.953Z,1024.89
2023-04-05T10:49:26.934Z,1024.88
2023-04-05T10:50:26.932Z,1024.83
2023-04-05T10:51:27.067Z,1024.9
2023-04-05T10:52:27.014Z,1024.88
2023-04-05T10:53:26.984Z,1024.86
2023-04-05T10:54:26.949Z,1024.86
2023-04-05T10:55:26.953Z,1024.9
2023-04-05T10:56:26.946Z,1024.88
2023-04-05T10:57:26.947Z,1024.88
2023-04-05T10:58:27.014Z,1024.87
2023-04-05T10:59:26.969Z,1024.89
2023-04-05T11:00:26.927Z,1024.84
2023-04-05T11:01:26.992Z,1024.88
2023-04-05T11:02:27.012Z,1024.87
2023-04-05T11:03:27.043Z,1024.85
2023-04-05T11:04:26.964Z,1024.83
2023-04-05T11:05:26.941Z,1024.85
2023-04-05T11:06:26.929Z,1024.86
2023-04-05T11:07:26.951Z,1024.86
2023-04-05T11:08:26.943Z,1024.86
2023-04-05T11:09:26.933Z,1024.83
2023-04-05T11:10:26.932Z,1024.86
2023-04-05T11:11:26.935Z,1024.86
2023-04-05T11:12:26.938Z,1024.83
2023-04-05T11:13:26.946Z,1024.79
2023-04-05T11:14:26.940Z,1024.78
2023-04-05T11:15:26.941Z,1024.79
2023-04-05T11:16:26.986Z,1024.74
2023-04-05T11:17:27.014Z,1024.76
2023-04-05T11:18:26.967Z,1024.77
2023-04-05T11:19:26.946Z,1024.78
2023-04-05T11:20:26.940Z,1024.75
2023-04-05T11:21:26.941Z,1024.78
2023-04-05T11:22:27.010Z,1024.76
2023-04-05T11:23:26.949Z,1024.75
2023-04-05T11:24:26.938Z,1024.8
2023-04-05T11:25:26.941Z,1024.74
2023-04-05T11:26:26.952Z,1024.74
2023-04-05T11:27:26.945Z,1024.73
2023-04-05T11:28:26.959Z,1024.75
2023-04-05T11:29:26.945Z,1024.75
2023-04-05T11:30:26.934Z,1024.73
2023-04-05T11:31:27.055Z,1024.67
2023-04-05T11:32:26.979Z,1024.66
2023-04-05T11:33:26.948Z,1024.66
2023-04-05T11:34:26.959Z,1024.74
2023-04-05T11:35:26.939Z,1024.74
2023-04-05T11:36:26.933Z,1024.75
2023-04-05T11:37:26.954Z,1024.8
2023-04-05T11:38:26.950Z,1024.77
2023-04-05T11:39:26.947Z,1024.8
2023-04-05T11:40:26.940Z,1024.8
2023-04-05T11:41:26.949Z,1024.82
2023-04-05T11:42:26.946Z,1024.79
2023-04-05T11:43:26.959Z,1024.74
2023-04-05T11:44:26.934Z,1024.78
2023-04-05T11:45:26.951Z,1024.77
2023-04-05T11:46:27.026Z,1024.81
2023-04-05T11:47:26.976Z,1024.76
2023-04-05T11:48:26.955Z,1024.76
2023-04-05T11:49:26.951Z,1024.76
2023-04-05T11:50:26.944Z,1024.73
2023-04-05T11:51:26.942Z,1024.75
2023-04-05T11:52:26.956Z,1024.76
2023-04-05T11:53:26.953Z,1024.7
2023-04-05T11:54:26.966Z,1024.7
2023-04-05T11:55:26.946Z,1024.69
2023-04-05T11:56:26.943Z,1024.65
2023-04-05T11:57:26.947Z,1024.67
2023-04-05T11:58:26.956Z,1024.67
2023-04-05T11:59:26.976Z,1024.67
2023-04-05T12:00:26.925Z,1024.67
2023-04-05T12:01:26.935Z,1024.66
2023-04-05T12:02:27.048Z,1024.65
2023-04-05T12:03:27.028Z,1024.67
2023-04-05T12:04:26.976Z,1024.64
2023-04-05T12:05:26.949Z,1024.68
2023-04-05T12:06:26.952Z,1024.69
2023-04-05T12:07:26.957Z,1024.64
2023-04-05T12:08:26.959Z,1024.69
2023-04-05T12:09:26.941Z,1024.67